sensor_id;sensor_type;location;lat;lon;timestamp;P1;durP1;ratioP1;P2;durP2;ratioP2
2157;SDS011;41972;48.774;9.282;2023-12-04T00:00:00;30.43;;;25.20;;
2157;SDS011;41972;48.774;9.282;2023-12-04T00:02:28;28.52;;;23.13;;
2157;SDS011;41972;48.774;9.282;2023-12-04T00:04:53;28.43;;;24.33;;
2157;SDS011;41972;48.774;9.282;2023-12-04T00:07:19;28.47;;;23.17;;
2157;SDS011;41972;48.774;9.282;2023-12-04T00:09:44;34.30;;;23.83;;
2157;SDS011;41972;48.774;9.282;2023-12-04T00:12:10;30.00;;;26.43;;
2157;SDS011;41972;48.774;9.282;2023-12-04T00:14:35;28.90;;;24.10;;
2157;SDS011;41972;48.774;9.282;2023-12-04T00:17:01;29.00;;;21.80;;
2157;SDS011;41972;48.774;9.282;2023-12-04T00:19:26;30.20;;;23.73;;
2157;SDS011;41972;48.774;9.282;2023-12-04T00:21:52;33.50;;;24.93;;
2157;SDS011;41972;48.774;9.282;2023-12-04T00:24:17;31.77;;;26.87;;
2157;SDS011;41972;48.774;9.282;2023-12-04T00:26:43;27.47;;;22.67;;
2157;SDS011;41972;48.774;9.282;2023-12-04T00:29:08;25.27;;;21.77;;
2157;SDS011;41972;48.774;9.282;2023-12-04T00:31:34;23.37;;;19.60;;
2157;SDS011;41972;48.774;9.282;2023-12-04T00:33:59;28.20;;;21.80;;
2157;SDS011;41972;48.774;9.282;2023-12-04T00:36:25;28.10;;;22.50;;
2157;SDS011;41972;48.774;9.282;2023-12-04T00:38:51;28.13;;;22.47;;
2157;SDS011;41972;48.774;9.282;2023-12-04T00:41:17;30.37;;;21.43;;
2157;SDS011;41972;48.774;9.282;2023-12-04T00:43:43;30.30;;;22.20;;
2157;SDS011;41972;48.774;9.282;2023-12-04T00:46:09;28.80;;;24.35;;
2157;SDS011;41972;48.774;9.282;2023-12-04T00:48:34;27.60;;;23.70;;
2157;SDS011;41972;48.774;9.282;2023-12-04T00:51:00;29.20;;;19.77;;
2157;SDS011;41972;48.774;9.282;2023-12-04T00:53:25;26.80;;;21.00;;
2157;SDS011;41972;48.774;9.282;2023-12-04T00:55:51;27.90;;;23.10;;
2157;SDS011;41972;48.774;9.282;2023-12-04T00:58:16;29.67;;;24.10;;
2157;SDS011;41972;48.774;9.282;2023-12-04T01:00:42;27.03;;;21.00;;
2157;SDS011;41972;48.774;9.282;2023-12-04T01:03:07;24.03;;;20.43;;
2157;SDS011;41972;48.774;9.282;2023-12-04T01:05:33;25.50;;;22.23;;
2157;SDS011;41972;48.774;9.282;2023-12-04T01:07:59;27.08;;;21.67;;
2157;SDS011;41972;48.774;9.282;2023-12-04T01:10:24;23.93;;;20.70;;
2157;SDS011;41972;48.774;9.282;2023-12-04T01:12:50;26.63;;;20.23;;
2157;SDS011;41972;48.774;9.282;2023-12-04T01:15:17;26.93;;;19.40;;
2157;SDS011;41972;48.774;9.282;2023-12-04T01:17:42;24.05;;;20.83;;
2157;SDS011;41972;48.774;9.282;2023-12-04T01:20:08;23.47;;;19.80;;
2157;SDS011;41972;48.774;9.282;2023-12-04T01:22:34;27.98;;;22.17;;
2157;SDS011;41972;48.774;9.282;2023-12-04T01:25:00;26.73;;;21.03;;
2157;SDS011;41972;48.774;9.282;2023-12-04T01:27:25;29.47;;;22.50;;
2157;SDS011;41972;48.774;9.282;2023-12-04T01:29:51;28.50;;;21.97;;
2157;SDS011;41972;48.774;9.282;2023-12-04T01:32:16;28.60;;;25.73;;
2157;SDS011;41972;48.774;9.282;2023-12-04T01:34:42;26.63;;;23.47;;
2157;SDS011;41972;48.774;9.282;2023-12-04T01:37:07;29.37;;;23.00;;
2157;SDS011;41972;48.774;9.282;2023-12-04T01:39:33;33.47;;;28.00;;
2157;SDS011;41972;48.774;9.282;2023-12-04T01:41:59;29.27;;;26.07;;
2157;SDS011;41972;48.774;9.282;2023-12-04T01:44:24;32.47;;;26.80;;
2157;SDS011;41972;48.774;9.282;2023-12-04T01:46:50;30.43;;;22.50;;
2157;SDS011;41972;48.774;9.282;2023-12-04T01:49:16;27.30;;;23.40;;
2157;SDS011;41972;48.774;9.282;2023-12-04T01:51:42;27.30;;;23.45;;
2157;SDS011;41972;48.774;9.282;2023-12-04T01:54:08;29.50;;;26.50;;
2157;SDS011;41972;48.774;9.282;2023-12-04T01:56:35;29.15;;;26.15;;
2157;SDS011;41972;48.774;9.282;2023-12-04T01:59:02;26.67;;;22.63;;
2157;SDS011;41972;48.774;9.282;2023-12-04T02:01:28;29.73;;;26.70;;
2157;SDS011;41972;48.774;9.282;2023-12-04T02:03:55;28.05;;;25.05;;
2157;SDS011;41972;48.774;9.282;2023-12-04T02:06:22;33.20;;;29.92;;
2157;SDS011;41972;48.774;9.282;2023-12-04T02:08:47;29.30;;;26.07;;
2157;SDS011;41972;48.774;9.282;2023-12-04T02:11:13;29.65;;;23.55;;
2157;SDS011;41972;48.774;9.282;2023-12-04T02:13:39;31.90;;;25.43;;
2157;SDS011;41972;48.774;9.282;2023-12-04T02:16:05;31.70;;;24.63;;
2157;SDS011;41972;48.774;9.282;2023-12-04T02:18:34;30.58;;;27.38;;
2157;SDS011;41972;48.774;9.282;2023-12-04T02:21:01;30.35;;;27.15;;
2157;SDS011;41972;48.774;9.282;2023-12-04T02:23:27;27.40;;;24.50;;
2157;SDS011;41972;48.774;9.282;2023-12-04T02:25:58;33.20;;;23.40;;
2157;SDS011;41972;48.774;9.282;2023-12-04T02:28:30;30.02;;;24.92;;
2157;SDS011;41972;48.774;9.282;2023-12-04T02:30:58;32.90;;;24.73;;
2157;SDS011;41972;48.774;9.282;2023-12-04T02:33:24;32.15;;;25.73;;
2157;SDS011;41972;48.774;9.282;2023-12-04T02:35:53;28.42;;;25.38;;
2157;SDS011;41972;48.774;9.282;2023-12-04T02:38:20;29.50;;;25.88;;
2157;SDS011;41972;48.774;9.282;2023-12-04T02:40:46;29.75;;;26.58;;
2157;SDS011;41972;48.774;9.282;2023-12-04T02:43:12;28.30;;;25.40;;
2157;SDS011;41972;48.774;9.282;2023-12-04T02:45:37;31.90;;;23.93;;
2157;SDS011;41972;48.774;9.282;2023-12-04T02:48:03;26.90;;;22.20;;
2157;SDS011;41972;48.774;9.282;2023-12-04T02:50:28;28.30;;;22.73;;
2157;SDS011;41972;48.774;9.282;2023-12-04T02:52:54;27.97;;;23.40;;
2157;SDS011;41972;48.774;9.282;2023-12-04T02:55:19;26.53;;;23.10;;
2157;SDS011;41972;48.774;9.282;2023-12-04T02:57:45;31.30;;;28.27;;
2157;SDS011;41972;48.774;9.282;2023-12-04T03:00:11;29.17;;;26.03;;
2157;SDS011;41972;48.774;9.282;2023-12-04T03:02:37;32.83;;;27.05;;
2157;SDS011;41972;48.774;9.282;2023-12-04T03:05:03;31.83;;;27.47;;
2157;SDS011;41972;48.774;9.282;2023-12-04T03:07:28;29.40;;;23.80;;
2157;SDS011;41972;48.774;9.282;2023-12-04T03:09:54;28.23;;;22.53;;
2157;SDS011;41972;48.774;9.282;2023-12-04T03:12:20;29.30;;;23.27;;
2157;SDS011;41972;48.774;9.282;2023-12-04T03:14:45;27.27;;;20.90;;
2157;SDS011;41972;48.774;9.282;2023-12-04T03:17:11;26.67;;;21.40;;
2157;SDS011;41972;48.774;9.282;2023-12-04T03:19:36;25.97;;;21.70;;
2157;SDS011;41972;48.774;9.282;2023-12-04T03:22:02;24.20;;;21.60;;
2157;SDS011;41972;48.774;9.282;2023-12-04T03:24:28;26.93;;;22.50;;
2157;SDS011;41972;48.774;9.282;2023-12-04T03:26:53;28.40;;;22.23;;
2157;SDS011;41972;48.774;9.282;2023-12-04T03:29:19;29.80;;;24.83;;
2157;SDS011;41972;48.774;9.282;2023-12-04T03:31:45;26.43;;;23.63;;
2157;SDS011;41972;48.774;9.282;2023-12-04T03:34:10;30.23;;;26.63;;
2157;SDS011;41972;48.774;9.282;2023-12-04T03:36:36;27.03;;;23.03;;
2157;SDS011;41972;48.774;9.282;2023-12-04T03:39:01;26.37;;;21.70;;
2157;SDS011;41972;48.774;9.282;2023-12-04T03:41:28;29.33;;;23.25;;
2157;SDS011;41972;48.774;9.282;2023-12-04T03:43:53;26.37;;;21.80;;
2157;SDS011;41972;48.774;9.282;2023-12-04T03:46:19;33.67;;;25.60;;
2157;SDS011;41972;48.774;9.282;2023-12-04T03:48:44;27.00;;;21.87;;
2157;SDS011;41972;48.774;9.282;2023-12-04T03:51:10;30.53;;;23.03;;
2157;SDS011;41972;48.774;9.282;2023-12-04T03:53:36;28.13;;;23.97;;
2157;SDS011;41972;48.774;9.282;2023-12-04T03:56:01;29.47;;;26.10;;
2157;SDS011;41972;48.774;9.282;2023-12-04T03:58:27;25.80;;;21.70;;
2157;SDS011;41972;48.774;9.282;2023-12-04T04:00:53;28.97;;;24.70;;
2157;SDS011;41972;48.774;9.282;2023-12-04T04:03:18;27.20;;;24.30;;
2157;SDS011;41972;48.774;9.282;2023-12-04T04:05:44;27.40;;;24.47;;
2157;SDS011;41972;48.774;9.282;2023-12-04T04:08:09;28.57;;;24.80;;
2157;SDS011;41972;48.774;9.282;2023-12-04T04:10:35;25.70;;;21.43;;
2157;SDS011;41972;48.774;9.282;2023-12-04T04:13:00;25.03;;;21.13;;
2157;SDS011;41972;48.774;9.282;2023-12-04T04:15:26;25.43;;;20.10;;
2157;SDS011;41972;48.774;9.282;2023-12-04T04:17:51;25.80;;;23.03;;
2157;SDS011;41972;48.774;9.282;2023-12-04T04:20:17;24.30;;;21.70;;
2157;SDS011;41972;48.774;9.282;2023-12-04T04:22:43;24.57;;;19.30;;
2157;SDS011;41972;48.774;9.282;2023-12-04T04:25:09;25.50;;;22.63;;
2157;SDS011;41972;48.774;9.282;2023-12-04T04:27:35;27.30;;;23.67;;
2157;SDS011;41972;48.774;9.282;2023-12-04T04:30:02;26.30;;;21.23;;
2157;SDS011;41972;48.774;9.282;2023-12-04T04:32:28;26.88;;;23.70;;
2157;SDS011;41972;48.774;9.282;2023-12-04T04:34:53;26.67;;;21.37;;
2157;SDS011;41972;48.774;9.282;2023-12-04T04:37:19;24.93;;;22.23;;
2157;SDS011;41972;48.774;9.282;2023-12-04T04:39:45;27.13;;;24.23;;
2157;SDS011;41972;48.774;9.282;2023-12-04T04:42:10;28.07;;;25.23;;
2157;SDS011;41972;48.774;9.282;2023-12-04T04:44:36;28.40;;;25.50;;
2157;SDS011;41972;48.774;9.282;2023-12-04T04:47:02;28.00;;;25.40;;
2157;SDS011;41972;48.774;9.282;2023-12-04T04:49:28;25.93;;;23.43;;
2157;SDS011;41972;48.774;9.282;2023-12-04T04:51:53;27.50;;;24.70;;
2157;SDS011;41972;48.774;9.282;2023-12-04T04:54:19;29.60;;;26.70;;
2157;SDS011;41972;48.774;9.282;2023-12-04T04:56:45;28.88;;;25.98;;
2157;SDS011;41972;48.774;9.282;2023-12-04T04:59:11;27.83;;;25.13;;
2157;SDS011;41972;48.774;9.282;2023-12-04T05:01:36;25.30;;;22.50;;
2157;SDS011;41972;48.774;9.282;2023-12-04T05:04:02;23.23;;;19.53;;
2157;SDS011;41972;48.774;9.282;2023-12-04T05:06:28;23.30;;;20.80;;
2157;SDS011;41972;48.774;9.282;2023-12-04T05:08:54;22.73;;;18.77;;
2157;SDS011;41972;48.774;9.282;2023-12-04T05:11:19;24.40;;;19.93;;
2157;SDS011;41972;48.774;9.282;2023-12-04T05:13:45;29.40;;;26.70;;
2157;SDS011;41972;48.774;9.282;2023-12-04T05:16:10;26.93;;;24.20;;
2157;SDS011;41972;48.774;9.282;2023-12-04T05:18:37;24.70;;;22.17;;
2157;SDS011;41972;48.774;9.282;2023-12-04T05:21:03;26.20;;;23.60;;
2157;SDS011;41972;48.774;9.282;2023-12-04T05:23:36;25.85;;;23.23;;
2157;SDS011;41972;48.774;9.282;2023-12-04T05:26:02;27.02;;;23.65;;
2157;SDS011;41972;48.774;9.282;2023-12-04T05:28:28;25.92;;;23.15;;
2157;SDS011;41972;48.774;9.282;2023-12-04T05:30:54;29.17;;;26.60;;
2157;SDS011;41972;48.774;9.282;2023-12-04T05:33:19;26.63;;;24.00;;
2157;SDS011;41972;48.774;9.282;2023-12-04T05:35:46;25.07;;;22.57;;
2157;SDS011;41972;48.774;9.282;2023-12-04T05:38:13;26.80;;;24.25;;
2157;SDS011;41972;48.774;9.282;2023-12-04T05:40:38;23.73;;;21.27;;
2157;SDS011;41972;48.774;9.282;2023-12-04T05:43:04;25.43;;;22.90;;
2157;SDS011;41972;48.774;9.282;2023-12-04T05:45:29;27.83;;;25.03;;
2157;SDS011;41972;48.774;9.282;2023-12-04T05:47:55;24.83;;;22.23;;
2157;SDS011;41972;48.774;9.282;2023-12-04T05:50:21;22.13;;;19.87;;
2157;SDS011;41972;48.774;9.282;2023-12-04T05:52:46;23.43;;;21.07;;
2157;SDS011;41972;48.774;9.282;2023-12-04T05:55:12;24.40;;;19.30;;
2157;SDS011;41972;48.774;9.282;2023-12-04T05:57:38;21.23;;;18.97;;
2157;SDS011;41972;48.774;9.282;2023-12-04T06:00:05;23.25;;;20.60;;
2157;SDS011;41972;48.774;9.282;2023-12-04T06:02:37;24.35;;;21.25;;
2157;SDS011;41972;48.774;9.282;2023-12-04T06:05:06;25.08;;;21.08;;
2157;SDS011;41972;48.774;9.282;2023-12-04T06:07:32;22.05;;;19.30;;
2157;SDS011;41972;48.774;9.282;2023-12-04T06:09:58;20.93;;;18.73;;
2157;SDS011;41972;48.774;9.282;2023-12-04T06:12:24;24.50;;;20.70;;
2157;SDS011;41972;48.774;9.282;2023-12-04T06:14:49;25.50;;;20.67;;
2157;SDS011;41972;48.774;9.282;2023-12-04T06:17:16;22.10;;;19.63;;
2157;SDS011;41972;48.774;9.282;2023-12-04T06:19:41;26.07;;;23.40;;
2157;SDS011;41972;48.774;9.282;2023-12-04T06:22:07;23.03;;;20.73;;
2157;SDS011;41972;48.774;9.282;2023-12-04T06:24:33;23.80;;;19.97;;
2157;SDS011;41972;48.774;9.282;2023-12-04T06:27:00;25.17;;;22.52;;
2157;SDS011;41972;48.774;9.282;2023-12-04T06:29:25;22.50;;;20.40;;
2157;SDS011;41972;48.774;9.282;2023-12-04T06:31:51;26.00;;;23.20;;
2157;SDS011;41972;48.774;9.282;2023-12-04T06:34:17;25.03;;;21.97;;
2157;SDS011;41972;48.774;9.282;2023-12-04T06:36:43;22.50;;;20.10;;
2157;SDS011;41972;48.774;9.282;2023-12-04T06:39:09;22.63;;;20.37;;
2157;SDS011;41972;48.774;9.282;2023-12-04T06:41:39;23.95;;;21.55;;
2157;SDS011;41972;48.774;9.282;2023-12-04T06:44:06;23.17;;;21.10;;
2157;SDS011;41972;48.774;9.282;2023-12-04T06:46:32;23.02;;;20.80;;
2157;SDS011;41972;48.774;9.282;2023-12-04T06:49:01;23.98;;;21.52;;
2157;SDS011;41972;48.774;9.282;2023-12-04T06:51:29;32.55;;;29.83;;
2157;SDS011;41972;48.774;9.282;2023-12-04T06:53:55;38.33;;;35.50;;
2157;SDS011;41972;48.774;9.282;2023-12-04T06:56:20;25.27;;;23.07;;
2157;SDS011;41972;48.774;9.282;2023-12-04T06:58:46;25.10;;;22.53;;
2157;SDS011;41972;48.774;9.282;2023-12-04T07:01:11;21.90;;;19.93;;
2157;SDS011;41972;48.774;9.282;2023-12-04T07:03:37;23.17;;;20.87;;
2157;SDS011;41972;48.774;9.282;2023-12-04T07:06:03;19.03;;;17.17;;
2157;SDS011;41972;48.774;9.282;2023-12-04T07:08:29;28.17;;;25.67;;
2157;SDS011;41972;48.774;9.282;2023-12-04T07:10:54;24.80;;;22.40;;
2157;SDS011;41972;48.774;9.282;2023-12-04T07:13:20;24.77;;;22.50;;
2157;SDS011;41972;48.774;9.282;2023-12-04T07:15:45;24.50;;;22.20;;
2157;SDS011;41972;48.774;9.282;2023-12-04T07:18:11;23.67;;;21.37;;
2157;SDS011;41972;48.774;9.282;2023-12-04T07:20:36;26.70;;;24.20;;
2157;SDS011;41972;48.774;9.282;2023-12-04T07:23:02;25.17;;;22.73;;
2157;SDS011;41972;48.774;9.282;2023-12-04T07:25:27;25.93;;;23.27;;
2157;SDS011;41972;48.774;9.282;2023-12-04T07:27:53;29.00;;;26.37;;
2157;SDS011;41972;48.774;9.282;2023-12-04T07:30:18;24.97;;;22.53;;
2157;SDS011;41972;48.774;9.282;2023-12-04T07:32:45;22.02;;;19.95;;
2157;SDS011;41972;48.774;9.282;2023-12-04T07:35:11;25.00;;;22.70;;
2157;SDS011;41972;48.774;9.282;2023-12-04T07:37:36;23.63;;;21.50;;
2157;SDS011;41972;48.774;9.282;2023-12-04T07:40:02;20.27;;;18.33;;
2157;SDS011;41972;48.774;9.282;2023-12-04T07:42:30;20.13;;;18.23;;
2157;SDS011;41972;48.774;9.282;2023-12-04T07:44:56;22.37;;;20.17;;
2157;SDS011;41972;48.774;9.282;2023-12-04T07:47:22;23.73;;;21.33;;
2157;SDS011;41972;48.774;9.282;2023-12-04T07:49:48;22.57;;;20.40;;
2157;SDS011;41972;48.774;9.282;2023-12-04T07:52:14;23.70;;;21.47;;
2157;SDS011;41972;48.774;9.282;2023-12-04T07:54:39;21.83;;;19.83;;
2157;SDS011;41972;48.774;9.282;2023-12-04T07:57:05;26.17;;;23.77;;
2157;SDS011;41972;48.774;9.282;2023-12-04T07:59:31;26.17;;;23.87;;
2157;SDS011;41972;48.774;9.282;2023-12-04T08:01:57;27.17;;;24.58;;
2157;SDS011;41972;48.774;9.282;2023-12-04T08:04:23;24.43;;;21.83;;
2157;SDS011;41972;48.774;9.282;2023-12-04T08:06:48;24.43;;;22.10;;
2157;SDS011;41972;48.774;9.282;2023-12-04T08:09:15;26.70;;;24.20;;
2157;SDS011;41972;48.774;9.282;2023-12-04T08:11:41;29.02;;;26.05;;
2157;SDS011;41972;48.774;9.282;2023-12-04T08:14:07;27.40;;;24.80;;
2157;SDS011;41972;48.774;9.282;2023-12-04T08:16:32;27.23;;;24.50;;
2157;SDS011;41972;48.774;9.282;2023-12-04T08:18:58;27.97;;;25.30;;
2157;SDS011;41972;48.774;9.282;2023-12-04T08:21:23;26.83;;;24.23;;
2157;SDS011;41972;48.774;9.282;2023-12-04T08:23:49;27.00;;;24.10;;
2157;SDS011;41972;48.774;9.282;2023-12-04T08:26:20;25.37;;;22.97;;
2157;SDS011;41972;48.774;9.282;2023-12-04T08:28:50;23.98;;;21.20;;
2157;SDS011;41972;48.774;9.282;2023-12-04T08:31:18;23.88;;;21.08;;
2157;SDS011;41972;48.774;9.282;2023-12-04T08:33:44;24.03;;;21.60;;
2157;SDS011;41972;48.774;9.282;2023-12-04T08:36:10;23.90;;;21.40;;
2157;SDS011;41972;48.774;9.282;2023-12-04T08:38:36;26.67;;;24.17;;
2157;SDS011;41972;48.774;9.282;2023-12-04T08:41:03;25.83;;;23.27;;
2157;SDS011;41972;48.774;9.282;2023-12-04T08:43:29;23.67;;;21.52;;
2157;SDS011;41972;48.774;9.282;2023-12-04T08:45:55;23.10;;;20.80;;
2157;SDS011;41972;48.774;9.282;2023-12-04T08:48:20;26.43;;;23.83;;
2157;SDS011;41972;48.774;9.282;2023-12-04T08:50:47;25.48;;;22.83;;
2157;SDS011;41972;48.774;9.282;2023-12-04T08:53:14;25.50;;;23.13;;
2157;SDS011;41972;48.774;9.282;2023-12-04T08:55:39;25.53;;;22.90;;
2157;SDS011;41972;48.774;9.282;2023-12-04T08:58:05;22.87;;;20.80;;
2157;SDS011;41972;48.774;9.282;2023-12-04T09:00:31;27.43;;;24.70;;
2157;SDS011;41972;48.774;9.282;2023-12-04T09:02:57;24.60;;;22.30;;
2157;SDS011;41972;48.774;9.282;2023-12-04T09:05:22;27.83;;;25.30;;
2157;SDS011;41972;48.774;9.282;2023-12-04T09:07:48;23.43;;;21.23;;
2157;SDS011;41972;48.774;9.282;2023-12-04T09:10:13;23.80;;;21.50;;
2157;SDS011;41972;48.774;9.282;2023-12-04T09:12:39;23.77;;;21.50;;
2157;SDS011;41972;48.774;9.282;2023-12-04T09:15:05;26.27;;;23.25;;
2157;SDS011;41972;48.774;9.282;2023-12-04T09:17:31;24.03;;;21.83;;
2157;SDS011;41972;48.774;9.282;2023-12-04T09:19:57;24.08;;;21.75;;
2157;SDS011;41972;48.774;9.282;2023-12-04T09:22:22;24.83;;;22.57;;
2157;SDS011;41972;48.774;9.282;2023-12-04T09:24:48;22.40;;;20.30;;
2157;SDS011;41972;48.774;9.282;2023-12-04T09:27:14;22.98;;;20.73;;
2157;SDS011;41972;48.774;9.282;2023-12-04T09:29:40;23.60;;;21.40;;
2157;SDS011;41972;48.774;9.282;2023-12-04T09:32:06;24.55;;;22.35;;
2157;SDS011;41972;48.774;9.282;2023-12-04T09:34:32;24.27;;;21.77;;
2157;SDS011;41972;48.774;9.282;2023-12-04T09:36:57;25.87;;;23.50;;
2157;SDS011;41972;48.774;9.282;2023-12-04T09:39:23;25.60;;;23.00;;
2157;SDS011;41972;48.774;9.282;2023-12-04T09:41:48;23.50;;;21.30;;
2157;SDS011;41972;48.774;9.282;2023-12-04T09:44:15;21.63;;;19.60;;
2157;SDS011;41972;48.774;9.282;2023-12-04T09:46:41;22.00;;;20.00;;
2157;SDS011;41972;48.774;9.282;2023-12-04T09:49:07;24.95;;;22.65;;
2157;SDS011;41972;48.774;9.282;2023-12-04T09:51:33;24.50;;;21.97;;
2157;SDS011;41972;48.774;9.282;2023-12-04T09:54:00;24.10;;;21.50;;
2157;SDS011;41972;48.774;9.282;2023-12-04T09:56:29;24.45;;;22.00;;
2157;SDS011;41972;48.774;9.282;2023-12-04T09:58:58;23.33;;;21.23;;
2157;SDS011;41972;48.774;9.282;2023-12-04T10:01:25;23.48;;;21.00;;
2157;SDS011;41972;48.774;9.282;2023-12-04T10:03:52;23.10;;;20.95;;
2157;SDS011;41972;48.774;9.282;2023-12-04T10:06:18;22.50;;;20.30;;
2157;SDS011;41972;48.774;9.282;2023-12-04T10:08:45;21.75;;;19.95;;
2157;SDS011;41972;48.774;9.282;2023-12-04T10:11:12;22.50;;;20.40;;
2157;SDS011;41972;48.774;9.282;2023-12-04T10:13:38;26.60;;;24.25;;
2157;SDS011;41972;48.774;9.282;2023-12-04T10:16:05;30.70;;;27.95;;
2157;SDS011;41972;48.774;9.282;2023-12-04T10:18:31;27.63;;;25.27;;
2157;SDS011;41972;48.774;9.282;2023-12-04T10:20:57;23.77;;;21.63;;
2157;SDS011;41972;48.774;9.282;2023-12-04T10:23:36;23.05;;;20.95;;
2157;SDS011;41972;48.774;9.282;2023-12-04T10:26:04;29.27;;;26.83;;
2157;SDS011;41972;48.774;9.282;2023-12-04T10:28:30;20.42;;;18.70;;
2157;SDS011;41972;48.774;9.282;2023-12-04T10:30:56;21.87;;;19.87;;
2157;SDS011;41972;48.774;9.282;2023-12-04T10:33:21;23.73;;;21.63;;
2157;SDS011;41972;48.774;9.282;2023-12-04T10:35:52;26.13;;;23.90;;
2157;SDS011;41972;48.774;9.282;2023-12-04T10:38:18;19.93;;;18.10;;
2157;SDS011;41972;48.774;9.282;2023-12-04T10:40:44;19.92;;;18.05;;
2157;SDS011;41972;48.774;9.282;2023-12-04T10:43:16;18.33;;;16.53;;
2157;SDS011;41972;48.774;9.282;2023-12-04T10:45:43;18.42;;;16.75;;
2157;SDS011;41972;48.774;9.282;2023-12-04T10:48:10;23.83;;;21.93;;
2157;SDS011;41972;48.774;9.282;2023-12-04T10:50:37;29.83;;;27.73;;
2157;SDS011;41972;48.774;9.282;2023-12-04T10:53:07;21.57;;;19.67;;
2157;SDS011;41972;48.774;9.282;2023-12-04T10:55:34;32.65;;;30.55;;
2157;SDS011;41972;48.774;9.282;2023-12-04T10:58:07;20.23;;;18.47;;
2157;SDS011;41972;48.774;9.282;2023-12-04T11:00:35;20.00;;;18.23;;
2157;SDS011;41972;48.774;9.282;2023-12-04T11:03:13;20.07;;;18.43;;
2157;SDS011;41972;48.774;9.282;2023-12-04T11:05:45;21.13;;;19.57;;
2157;SDS011;41972;48.774;9.282;2023-12-04T11:08:16;19.23;;;17.73;;
2157;SDS011;41972;48.774;9.282;2023-12-04T11:10:45;16.67;;;15.05;;
2157;SDS011;41972;48.774;9.282;2023-12-04T11:13:21;17.47;;;16.03;;
2157;SDS011;41972;48.774;9.282;2023-12-04T11:15:52;16.57;;;15.10;;
2157;SDS011;41972;48.774;9.282;2023-12-04T11:18:23;16.60;;;15.10;;
2157;SDS011;41972;48.774;9.282;2023-12-04T11:20:59;17.20;;;15.70;;
2157;SDS011;41972;48.774;9.282;2023-12-04T11:23:34;18.43;;;16.83;;
2157;SDS011;41972;48.774;9.282;2023-12-04T11:26:01;17.70;;;16.00;;
2157;SDS011;41972;48.774;9.282;2023-12-04T11:28:28;17.87;;;16.37;;
2157;SDS011;41972;48.774;9.282;2023-12-04T11:30:55;17.90;;;16.30;;
2157;SDS011;41972;48.774;9.282;2023-12-04T11:33:22;17.70;;;16.20;;
2157;SDS011;41972;48.774;9.282;2023-12-04T11:35:47;20.37;;;18.50;;
2157;SDS011;41972;48.774;9.282;2023-12-04T11:38:16;23.13;;;20.93;;
2157;SDS011;41972;48.774;9.282;2023-12-04T11:40:42;19.73;;;18.03;;
2157;SDS011;41972;48.774;9.282;2023-12-04T11:43:20;21.90;;;19.70;;
2157;SDS011;41972;48.774;9.282;2023-12-04T11:45:54;20.20;;;18.30;;
2157;SDS011;41972;48.774;9.282;2023-12-04T11:48:32;21.33;;;19.43;;
2157;SDS011;41972;48.774;9.282;2023-12-04T11:50:59;20.20;;;18.50;;
2157;SDS011;41972;48.774;9.282;2023-12-04T11:53:25;20.80;;;19.03;;
2157;SDS011;41972;48.774;9.282;2023-12-04T11:55:52;18.80;;;17.17;;
2157;SDS011;41972;48.774;9.282;2023-12-04T11:58:23;19.70;;;18.00;;
2157;SDS011;41972;48.774;9.282;2023-12-04T12:00:49;18.97;;;17.07;;
2157;SDS011;41972;48.774;9.282;2023-12-04T12:03:14;18.83;;;17.23;;
2157;SDS011;41972;48.774;9.282;2023-12-04T12:05:40;19.30;;;17.80;;
2157;SDS011;41972;48.774;9.282;2023-12-04T12:08:07;17.53;;;15.93;;
2157;SDS011;41972;48.774;9.282;2023-12-04T12:10:33;18.77;;;17.00;;
2157;SDS011;41972;48.774;9.282;2023-12-04T12:12:59;18.57;;;16.97;;
2157;SDS011;41972;48.774;9.282;2023-12-04T12:15:26;17.90;;;16.30;;
2157;SDS011;41972;48.774;9.282;2023-12-04T12:17:52;18.67;;;16.87;;
2157;SDS011;41972;48.774;9.282;2023-12-04T12:20:18;18.70;;;16.80;;
2157;SDS011;41972;48.774;9.282;2023-12-04T12:22:47;18.70;;;17.00;;
2157;SDS011;41972;48.774;9.282;2023-12-04T12:25:13;18.10;;;16.40;;
2157;SDS011;41972;48.774;9.282;2023-12-04T12:27:39;18.17;;;16.57;;
2157;SDS011;41972;48.774;9.282;2023-12-04T12:30:07;17.87;;;16.20;;
2157;SDS011;41972;48.774;9.282;2023-12-04T12:32:33;16.07;;;14.70;;
2157;SDS011;41972;48.774;9.282;2023-12-04T12:34:59;15.93;;;14.50;;
2157;SDS011;41972;48.774;9.282;2023-12-04T12:37:25;17.10;;;15.40;;
2157;SDS011;41972;48.774;9.282;2023-12-04T12:39:51;17.17;;;15.77;;
2157;SDS011;41972;48.774;9.282;2023-12-04T12:42:21;16.30;;;14.87;;
2157;SDS011;41972;48.774;9.282;2023-12-04T12:44:47;18.70;;;17.10;;
2157;SDS011;41972;48.774;9.282;2023-12-04T12:47:16;19.73;;;17.93;;
2157;SDS011;41972;48.774;9.282;2023-12-04T12:49:44;18.57;;;16.93;;
2157;SDS011;41972;48.774;9.282;2023-12-04T12:52:09;19.97;;;18.17;;
2157;SDS011;41972;48.774;9.282;2023-12-04T12:54:36;20.67;;;18.57;;
2157;SDS011;41972;48.774;9.282;2023-12-04T12:57:05;22.60;;;20.63;;
2157;SDS011;41972;48.774;9.282;2023-12-04T12:59:32;18.67;;;16.77;;
2157;SDS011;41972;48.774;9.282;2023-12-04T13:01:58;21.20;;;19.20;;
2157;SDS011;41972;48.774;9.282;2023-12-04T13:04:25;23.70;;;19.07;;
2157;SDS011;41972;48.774;9.282;2023-12-04T13:06:51;22.90;;;20.60;;
2157;SDS011;41972;48.774;9.282;2023-12-04T13:09:16;27.30;;;25.10;;
2157;SDS011;41972;48.774;9.282;2023-12-04T13:11:46;25.30;;;22.93;;
2157;SDS011;41972;48.774;9.282;2023-12-04T13:14:12;26.30;;;23.80;;
2157;SDS011;41972;48.774;9.282;2023-12-04T13:16:38;24.00;;;21.80;;
2157;SDS011;41972;48.774;9.282;2023-12-04T13:19:04;24.03;;;21.83;;
2157;SDS011;41972;48.774;9.282;2023-12-04T13:21:30;23.00;;;20.70;;
2157;SDS011;41972;48.774;9.282;2023-12-04T13:23:56;24.57;;;22.27;;
2157;SDS011;41972;48.774;9.282;2023-12-04T13:26:22;25.87;;;23.37;;
2157;SDS011;41972;48.774;9.282;2023-12-04T13:28:47;23.13;;;21.20;;
2157;SDS011;41972;48.774;9.282;2023-12-04T13:31:13;23.27;;;21.27;;
2157;SDS011;41972;48.774;9.282;2023-12-04T13:33:38;23.87;;;21.47;;
2157;SDS011;41972;48.774;9.282;2023-12-04T13:36:04;24.50;;;22.27;;
2157;SDS011;41972;48.774;9.282;2023-12-04T13:38:30;25.40;;;22.90;;
2157;SDS011;41972;48.774;9.282;2023-12-04T13:40:56;26.63;;;24.13;;
2157;SDS011;41972;48.774;9.282;2023-12-04T13:43:27;29.00;;;26.20;;
2157;SDS011;41972;48.774;9.282;2023-12-04T13:46:11;26.10;;;23.47;;
2157;SDS011;41972;48.774;9.282;2023-12-04T13:48:37;27.93;;;25.23;;
2157;SDS011;41972;48.774;9.282;2023-12-04T13:51:06;28.73;;;25.80;;
2157;SDS011;41972;48.774;9.282;2023-12-04T13:53:34;48.07;;;44.83;;
2157;SDS011;41972;48.774;9.282;2023-12-04T13:56:00;28.23;;;25.43;;
2157;SDS011;41972;48.774;9.282;2023-12-04T13:58:25;30.43;;;27.47;;
2157;SDS011;41972;48.774;9.282;2023-12-04T14:01:05;29.27;;;26.53;;
2157;SDS011;41972;48.774;9.282;2023-12-04T14:03:41;33.00;;;30.00;;
2157;SDS011;41972;48.774;9.282;2023-12-04T14:06:08;31.90;;;28.80;;
2157;SDS011;41972;48.774;9.282;2023-12-04T14:08:34;32.63;;;29.70;;
2157;SDS011;41972;48.774;9.282;2023-12-04T14:11:00;41.70;;;38.10;;
2157;SDS011;41972;48.774;9.282;2023-12-04T14:13:27;32.97;;;28.37;;
2157;SDS011;41972;48.774;9.282;2023-12-04T14:15:53;32.53;;;29.20;;
2157;SDS011;41972;48.774;9.282;2023-12-04T14:18:20;31.20;;;28.07;;
2157;SDS011;41972;48.774;9.282;2023-12-04T14:20:46;31.73;;;28.63;;
2157;SDS011;41972;48.774;9.282;2023-12-04T14:23:13;31.87;;;28.60;;
2157;SDS011;41972;48.774;9.282;2023-12-04T14:25:39;31.67;;;28.37;;
2157;SDS011;41972;48.774;9.282;2023-12-04T14:28:05;30.73;;;27.63;;